sensor_id;sensor_type;location;lat;lon;timestamp;P1;durP1;ratioP1;P2;durP2;ratioP2
15202;SDS011;7702;51.046;5.184;2023-06-14T00:01:24;8.70;;;7.60;;
15202;SDS011;7702;51.046;5.184;2023-06-14T00:03:50;10.03;;;6.90;;
15202;SDS011;7702;51.046;5.184;2023-06-14T00:06:15;7.77;;;7.10;;
15202;SDS011;7702;51.046;5.184;2023-06-14T00:08:42;7.97;;;7.27;;
15202;SDS011;7702;51.046;5.184;2023-06-14T00:11:08;8.27;;;7.03;;
15202;SDS011;7702;51.046;5.184;2023-06-14T00:13:34;8.93;;;7.10;;
15202;SDS011;7702;51.046;5.184;2023-06-14T00:15:59;7.47;;;6.67;;
15202;SDS011;7702;51.046;5.184;2023-06-14T00:18:26;7.70;;;7.00;;
15202;SDS011;7702;51.046;5.184;2023-06-14T00:20:54;8.40;;;7.60;;
15202;SDS011;7702;51.046;5.184;2023-06-14T00:23:20;9.57;;;7.13;;
15202;SDS011;7702;51.046;5.184;2023-06-14T00:25:46;8.53;;;7.83;;
15202;SDS011;7702;51.046;5.184;2023-06-14T00:28:12;7.70;;;7.00;;
15202;SDS011;7702;51.046;5.184;2023-06-14T00:30:38;7.73;;;6.57;;
15202;SDS011;7702;51.046;5.184;2023-06-14T00:33:04;8.13;;;6.87;;
15202;SDS011;7702;51.046;5.184;2023-06-14T00:35:30;8.93;;;7.67;;
15202;SDS011;7702;51.046;5.184;2023-06-14T00:37:56;8.03;;;7.23;;
15202;SDS011;7702;51.046;5.184;2023-06-14T00:40:22;7.80;;;7.03;;
15202;SDS011;7702;51.046;5.184;2023-06-14T00:42:47;8.47;;;7.60;;
15202;SDS011;7702;51.046;5.184;2023-06-14T00:45:13;7.63;;;6.93;;
15202;SDS011;7702;51.046;5.184;2023-06-14T00:47:40;9.33;;;8.13;;
15202;SDS011;7702;51.046;5.184;2023-06-14T00:50:07;8.07;;;7.13;;
15202;SDS011;7702;51.046;5.184;2023-06-14T00:52:33;8.43;;;7.73;;
15202;SDS011;7702;51.046;5.184;2023-06-14T00:55:00;8.40;;;7.00;;
15202;SDS011;7702;51.046;5.184;2023-06-14T00:57:26;8.30;;;7.53;;
15202;SDS011;7702;51.046;5.184;2023-06-14T00:59:52;8.60;;;7.83;;
15202;SDS011;7702;51.046;5.184;2023-06-14T01:02:19;9.63;;;8.47;;
15202;SDS011;7702;51.046;5.184;2023-06-14T01:04:46;9.57;;;8.60;;
15202;SDS011;7702;51.046;5.184;2023-06-14T01:15:09;10.90;;;7.77;;
15202;SDS011;7702;51.046;5.184;2023-06-14T01:17:37;9.60;;;8.60;;
15202;SDS011;7702;51.046;5.184;2023-06-14T01:20:09;8.77;;;7.93;;
15202;SDS011;7702;51.046;5.184;2023-06-14T01:22:44;9.40;;;8.50;;
15202;SDS011;7702;51.046;5.184;2023-06-14T01:25:17;9.10;;;8.30;;
15202;SDS011;7702;51.046;5.184;2023-06-14T01:27:48;9.13;;;8.27;;
15202;SDS011;7702;51.046;5.184;2023-06-14T01:30:16;9.30;;;8.40;;
15202;SDS011;7702;51.046;5.184;2023-06-14T01:32:43;8.60;;;7.80;;
15202;SDS011;7702;51.046;5.184;2023-06-14T01:35:09;8.67;;;7.83;;
15202;SDS011;7702;51.046;5.184;2023-06-14T01:37:35;8.70;;;7.90;;
15202;SDS011;7702;51.046;5.184;2023-06-14T01:40:03;10.00;;;8.90;;
15202;SDS011;7702;51.046;5.184;2023-06-14T01:42:32;8.60;;;7.70;;
15202;SDS011;7702;51.046;5.184;2023-06-14T01:45:00;9.00;;;8.20;;
15202;SDS011;7702;51.046;5.184;2023-06-14T01:47:28;9.73;;;8.80;;
15202;SDS011;7702;51.046;5.184;2023-06-14T01:49:55;9.93;;;8.83;;
15202;SDS011;7702;51.046;5.184;2023-06-14T01:52:21;9.17;;;8.20;;
15202;SDS011;7702;51.046;5.184;2023-06-14T01:54:49;9.27;;;8.57;;
15202;SDS011;7702;51.046;5.184;2023-06-14T01:57:17;9.60;;;8.60;;
15202;SDS011;7702;51.046;5.184;2023-06-14T01:59:43;9.00;;;7.57;;
15202;SDS011;7702;51.046;5.184;2023-06-14T02:02:13;8.93;;;8.00;;
15202;SDS011;7702;51.046;5.184;2023-06-14T02:04:40;9.27;;;8.13;;
15202;SDS011;7702;51.046;5.184;2023-06-14T02:07:06;8.40;;;7.70;;
15202;SDS011;7702;51.046;5.184;2023-06-14T02:09:32;9.03;;;8.27;;
15202;SDS011;7702;51.046;5.184;2023-06-14T02:11:58;11.83;;;8.33;;
15202;SDS011;7702;51.046;5.184;2023-06-14T02:14:24;8.73;;;8.03;;
15202;SDS011;7702;51.046;5.184;2023-06-14T02:16:51;9.47;;;8.43;;
15202;SDS011;7702;51.046;5.184;2023-06-14T02:19:18;9.07;;;8.27;;
15202;SDS011;7702;51.046;5.184;2023-06-14T02:21:45;9.03;;;8.23;;
15202;SDS011;7702;51.046;5.184;2023-06-14T02:24:11;9.87;;;8.97;;
15202;SDS011;7702;51.046;5.184;2023-06-14T02:26:37;11.10;;;8.30;;
15202;SDS011;7702;51.046;5.184;2023-06-14T02:29:04;9.00;;;8.10;;
15202;SDS011;7702;51.046;5.184;2023-06-14T02:31:31;9.30;;;8.13;;
15202;SDS011;7702;51.046;5.184;2023-06-14T02:33:56;8.53;;;7.73;;
15202;SDS011;7702;51.046;5.184;2023-06-14T02:36:22;9.23;;;8.23;;
15202;SDS011;7702;51.046;5.184;2023-06-14T02:38:48;8.70;;;7.90;;
15202;SDS011;7702;51.046;5.184;2023-06-14T02:41:14;10.30;;;8.40;;
15202;SDS011;7702;51.046;5.184;2023-06-14T02:43:39;9.60;;;8.60;;
15202;SDS011;7702;51.046;5.184;2023-06-14T02:46:05;12.13;;;8.10;;
15202;SDS011;7702;51.046;5.184;2023-06-14T02:48:32;9.17;;;8.23;;
15202;SDS011;7702;51.046;5.184;2023-06-14T02:50:57;11.17;;;7.83;;
15202;SDS011;7702;51.046;5.184;2023-06-14T02:53:23;9.27;;;8.40;;
15202;SDS011;7702;51.046;5.184;2023-06-14T02:55:49;9.70;;;8.47;;
15202;SDS011;7702;51.046;5.184;2023-06-14T02:58:14;11.30;;;9.43;;
15202;SDS011;7702;51.046;5.184;2023-06-14T03:00:41;9.17;;;8.17;;
15202;SDS011;7702;51.046;5.184;2023-06-14T03:03:07;13.13;;;8.17;;
15202;SDS011;7702;51.046;5.184;2023-06-14T03:05:43;8.23;;;7.43;;
15202;SDS011;7702;51.046;5.184;2023-06-14T03:08:15;8.87;;;8.03;;
15202;SDS011;7702;51.046;5.184;2023-06-14T03:10:44;8.97;;;8.23;;
15202;SDS011;7702;51.046;5.184;2023-06-14T03:13:13;11.13;;;9.07;;
15202;SDS011;7702;51.046;5.184;2023-06-14T03:15:41;9.33;;;8.37;;
15202;SDS011;7702;51.046;5.184;2023-06-14T03:18:08;9.97;;;8.97;;
15202;SDS011;7702;51.046;5.184;2023-06-14T03:20:37;9.97;;;9.07;;
15202;SDS011;7702;51.046;5.184;2023-06-14T03:23:04;10.23;;;8.67;;
15202;SDS011;7702;51.046;5.184;2023-06-14T03:25:30;8.47;;;7.67;;
15202;SDS011;7702;51.046;5.184;2023-06-14T03:27:56;10.00;;;8.23;;
15202;SDS011;7702;51.046;5.184;2023-06-14T03:30:23;8.40;;;7.70;;
15202;SDS011;7702;51.046;5.184;2023-06-14T03:32:48;10.90;;;8.90;;
15202;SDS011;7702;51.046;5.184;2023-06-14T03:35:17;10.13;;;8.63;;
15202;SDS011;7702;51.046;5.184;2023-06-14T03:37:46;9.77;;;8.63;;
15202;SDS011;7702;51.046;5.184;2023-06-14T03:40:12;9.73;;;7.90;;
15202;SDS011;7702;51.046;5.184;2023-06-14T03:42:39;9.43;;;8.63;;
15202;SDS011;7702;51.046;5.184;2023-06-14T03:45:05;11.77;;;8.40;;
15202;SDS011;7702;51.046;5.184;2023-06-14T03:47:32;9.47;;;8.57;;
15202;SDS011;7702;51.046;5.184;2023-06-14T03:49:58;12.37;;;8.70;;
15202;SDS011;7702;51.046;5.184;2023-06-14T03:52:23;9.50;;;8.70;;
15202;SDS011;7702;51.046;5.184;2023-06-14T03:54:50;9.13;;;8.20;;
15202;SDS011;7702;51.046;5.184;2023-06-14T03:57:16;10.80;;;9.17;;
15202;SDS011;7702;51.046;5.184;2023-06-14T03:59:42;9.73;;;8.60;;
15202;SDS011;7702;51.046;5.184;2023-06-14T04:02:07;10.63;;;9.13;;
15202;SDS011;7702;51.046;5.184;2023-06-14T04:04:34;12.17;;;9.83;;
15202;SDS011;7702;51.046;5.184;2023-06-14T04:07:00;9.53;;;8.63;;
15202;SDS011;7702;51.046;5.184;2023-06-14T04:09:29;9.67;;;8.77;;
15202;SDS011;7702;51.046;5.184;2023-06-14T04:11:55;9.60;;;8.43;;
15202;SDS011;7702;51.046;5.184;2023-06-14T04:14:21;10.37;;;9.37;;
15202;SDS011;7702;51.046;5.184;2023-06-14T04:16:47;10.53;;;9.00;;
15202;SDS011;7702;51.046;5.184;2023-06-14T04:19:14;10.90;;;9.13;;
15202;SDS011;7702;51.046;5.184;2023-06-14T04:21:41;9.70;;;8.87;;
15202;SDS011;7702;51.046;5.184;2023-06-14T04:24:07;9.83;;;8.83;;
15202;SDS011;7702;51.046;5.184;2023-06-14T04:26:38;10.40;;;9.27;;
15202;SDS011;7702;51.046;5.184;2023-06-14T04:29:09;10.07;;;8.73;;
15202;SDS011;7702;51.046;5.184;2023-06-14T04:31:42;10.83;;;9.73;;
15202;SDS011;7702;51.046;5.184;2023-06-14T04:34:09;14.53;;;9.20;;
15202;SDS011;7702;51.046;5.184;2023-06-14T04:36:40;10.87;;;9.33;;
15202;SDS011;7702;51.046;5.184;2023-06-14T04:39:17;11.83;;;9.30;;
15202;SDS011;7702;51.046;5.184;2023-06-14T04:41:43;11.83;;;9.80;;
15202;SDS011;7702;51.046;5.184;2023-06-14T04:44:09;10.97;;;9.83;;
15202;SDS011;7702;51.046;5.184;2023-06-14T04:46:35;9.37;;;8.37;;
15202;SDS011;7702;51.046;5.184;2023-06-14T04:49:14;11.23;;;9.83;;
15202;SDS011;7702;51.046;5.184;2023-06-14T04:51:41;10.93;;;9.90;;
15202;SDS011;7702;51.046;5.184;2023-06-14T04:54:07;11.20;;;10.10;;
15202;SDS011;7702;51.046;5.184;2023-06-14T04:56:43;10.40;;;9.40;;
15202;SDS011;7702;51.046;5.184;2023-06-14T04:59:11;10.13;;;9.00;;
15202;SDS011;7702;51.046;5.184;2023-06-14T05:01:37;10.67;;;9.53;;
15202;SDS011;7702;51.046;5.184;2023-06-14T05:04:03;9.70;;;8.77;;
15202;SDS011;7702;51.046;5.184;2023-06-14T05:06:29;11.40;;;9.07;;
15202;SDS011;7702;51.046;5.184;2023-06-14T05:08:56;11.07;;;9.97;;
15202;SDS011;7702;51.046;5.184;2023-06-14T05:11:21;12.27;;;10.10;;
15202;SDS011;7702;51.046;5.184;2023-06-14T05:13:52;10.00;;;9.03;;
15202;SDS011;7702;51.046;5.184;2023-06-14T05:16:17;10.33;;;9.33;;
15202;SDS011;7702;51.046;5.184;2023-06-14T05:18:44;10.23;;;9.33;;
15202;SDS011;7702;51.046;5.184;2023-06-14T05:21:12;10.70;;;9.60;;
15202;SDS011;7702;51.046;5.184;2023-06-14T05:23:38;10.27;;;9.17;;
15202;SDS011;7702;51.046;5.184;2023-06-14T05:26:03;10.67;;;9.77;;
15202;SDS011;7702;51.046;5.184;2023-06-14T05:28:30;10.63;;;9.53;;
15202;SDS011;7702;51.046;5.184;2023-06-14T05:30:56;10.43;;;9.33;;
15202;SDS011;7702;51.046;5.184;2023-06-14T05:33:23;11.33;;;9.70;;
15202;SDS011;7702;51.046;5.184;2023-06-14T05:35:48;15.37;;;10.80;;
15202;SDS011;7702;51.046;5.184;2023-06-14T05:38:14;10.00;;;9.00;;
15202;SDS011;7702;51.046;5.184;2023-06-14T05:40:40;9.50;;;8.70;;
15202;SDS011;7702;51.046;5.184;2023-06-14T05:43:05;10.17;;;9.17;;
15202;SDS011;7702;51.046;5.184;2023-06-14T05:45:31;10.10;;;9.10;;
15202;SDS011;7702;51.046;5.184;2023-06-14T05:47:57;10.73;;;8.90;;
15202;SDS011;7702;51.046;5.184;2023-06-14T05:50:22;10.00;;;9.00;;
15202;SDS011;7702;51.046;5.184;2023-06-14T05:52:48;11.10;;;9.20;;
15202;SDS011;7702;51.046;5.184;2023-06-14T05:55:15;10.30;;;9.03;;
15202;SDS011;7702;51.046;5.184;2023-06-14T05:57:41;10.17;;;9.27;;
15202;SDS011;7702;51.046;5.184;2023-06-14T06:00:07;10.47;;;8.53;;
15202;SDS011;7702;51.046;5.184;2023-06-14T06:02:39;9.27;;;8.47;;
15202;SDS011;7702;51.046;5.184;2023-06-14T06:05:08;11.10;;;9.53;;
15202;SDS011;7702;51.046;5.184;2023-06-14T06:07:35;10.33;;;9.27;;
15202;SDS011;7702;51.046;5.184;2023-06-14T06:10:02;10.93;;;9.97;;
15202;SDS011;7702;51.046;5.184;2023-06-14T06:12:28;8.77;;;7.87;;
15202;SDS011;7702;51.046;5.184;2023-06-14T06:14:54;11.17;;;8.83;;
15202;SDS011;7702;51.046;5.184;2023-06-14T06:17:20;9.87;;;8.93;;
15202;SDS011;7702;51.046;5.184;2023-06-14T06:19:46;12.47;;;9.30;;
15202;SDS011;7702;51.046;5.184;2023-06-14T06:22:11;10.80;;;9.33;;
15202;SDS011;7702;51.046;5.184;2023-06-14T06:24:37;9.27;;;8.47;;
15202;SDS011;7702;51.046;5.184;2023-06-14T06:27:03;10.17;;;8.97;;
15202;SDS011;7702;51.046;5.184;2023-06-14T06:29:29;9.77;;;8.77;;
15202;SDS011;7702;51.046;5.184;2023-06-14T06:31:55;9.43;;;8.53;;
15202;SDS011;7702;51.046;5.184;2023-06-14T06:34:21;10.17;;;9.17;;
15202;SDS011;7702;51.046;5.184;2023-06-14T06:36:47;9.93;;;9.03;;
15202;SDS011;7702;51.046;5.184;2023-06-14T06:39:13;9.60;;;8.70;;
15202;SDS011;7702;51.046;5.184;2023-06-14T06:41:40;9.27;;;8.37;;
15202;SDS011;7702;51.046;5.184;2023-06-14T06:44:06;8.87;;;7.97;;
15202;SDS011;7702;51.046;5.184;2023-06-14T06:46:32;9.23;;;8.10;;
15202;SDS011;7702;51.046;5.184;2023-06-14T06:48:59;8.27;;;7.57;;
15202;SDS011;7702;51.046;5.184;2023-06-14T06:51:25;10.13;;;8.30;;
15202;SDS011;7702;51.046;5.184;2023-06-14T06:53:54;11.70;;;8.33;;
15202;SDS011;7702;51.046;5.184;2023-06-14T06:56:21;9.03;;;8.27;;
15202;SDS011;7702;51.046;5.184;2023-06-14T06:58:48;10.87;;;8.27;;
15202;SDS011;7702;51.046;5.184;2023-06-14T07:01:14;8.67;;;7.70;;
15202;SDS011;7702;51.046;5.184;2023-06-14T07:03:40;9.93;;;8.50;;
15202;SDS011;7702;51.046;5.184;2023-06-14T07:06:06;8.00;;;7.30;;
15202;SDS011;7702;51.046;5.184;2023-06-14T07:08:32;8.70;;;7.93;;
15202;SDS011;7702;51.046;5.184;2023-06-14T07:10:57;8.23;;;7.40;;
15202;SDS011;7702;51.046;5.184;2023-06-14T07:13:23;8.77;;;7.87;;
15202;SDS011;7702;51.046;5.184;2023-06-14T07:15:49;7.87;;;7.23;;
15202;SDS011;7702;51.046;5.184;2023-06-14T07:18:14;8.87;;;7.33;;
15202;SDS011;7702;51.046;5.184;2023-06-14T07:20:40;8.70;;;7.90;;
15202;SDS011;7702;51.046;5.184;2023-06-14T07:23:08;11.73;;;8.67;;
15202;SDS011;7702;51.046;5.184;2023-06-14T07:25:33;8.50;;;7.67;;
15202;SDS011;7702;51.046;5.184;2023-06-14T07:27:59;8.13;;;7.33;;
15202;SDS011;7702;51.046;5.184;2023-06-14T07:30:25;9.03;;;7.60;;
15202;SDS011;7702;51.046;5.184;2023-06-14T07:32:54;11.67;;;7.50;;
15202;SDS011;7702;51.046;5.184;2023-06-14T07:35:20;9.20;;;6.73;;
15202;SDS011;7702;51.046;5.184;2023-06-14T07:37:45;10.47;;;7.63;;
15202;SDS011;7702;51.046;5.184;2023-06-14T07:40:12;7.97;;;7.17;;
15202;SDS011;7702;51.046;5.184;2023-06-14T07:42:39;7.40;;;6.70;;
15202;SDS011;7702;51.046;5.184;2023-06-14T07:45:05;8.00;;;6.70;;
15202;SDS011;7702;51.046;5.184;2023-06-14T07:47:31;6.93;;;5.97;;
15202;SDS011;7702;51.046;5.184;2023-06-14T07:49:57;8.17;;;7.47;;
15202;SDS011;7702;51.046;5.184;2023-06-14T07:52:23;7.67;;;6.90;;
15202;SDS011;7702;51.046;5.184;2023-06-14T07:54:49;9.00;;;6.80;;
15202;SDS011;7702;51.046;5.184;2023-06-14T07:57:14;8.57;;;7.07;;
15202;SDS011;7702;51.046;5.184;2023-06-14T07:59:40;9.27;;;7.30;;
15202;SDS011;7702;51.046;5.184;2023-06-14T08:02:06;8.30;;;7.07;;
15202;SDS011;7702;51.046;5.184;2023-06-14T08:04:32;7.67;;;6.70;;
15202;SDS011;7702;51.046;5.184;2023-06-14T08:06:58;7.50;;;6.80;;
15202;SDS011;7702;51.046;5.184;2023-06-14T08:09:25;7.27;;;6.17;;
15202;SDS011;7702;51.046;5.184;2023-06-14T08:11:50;7.30;;;6.07;;
15202;SDS011;7702;51.046;5.184;2023-06-14T08:14:16;10.87;;;7.13;;
15202;SDS011;7702;51.046;5.184;2023-06-14T08:16:42;7.73;;;6.97;;
15202;SDS011;7702;51.046;5.184;2023-06-14T08:19:08;7.83;;;6.43;;
15202;SDS011;7702;51.046;5.184;2023-06-14T08:21:33;6.77;;;6.00;;
15202;SDS011;7702;51.046;5.184;2023-06-14T08:24:01;6.47;;;5.97;;
15202;SDS011;7702;51.046;5.184;2023-06-14T08:26:27;7.47;;;5.43;;
15202;SDS011;7702;51.046;5.184;2023-06-14T08:28:56;6.60;;;5.90;;
15202;SDS011;7702;51.046;5.184;2023-06-14T08:31:22;6.90;;;5.40;;
15202;SDS011;7702;51.046;5.184;2023-06-14T08:33:50;8.63;;;5.77;;
15202;SDS011;7702;51.046;5.184;2023-06-14T08:36:16;5.90;;;5.40;;
15202;SDS011;7702;51.046;5.184;2023-06-14T08:38:41;6.60;;;6.00;;
15202;SDS011;7702;51.046;5.184;2023-06-14T08:41:07;6.80;;;5.80;;
15202;SDS011;7702;51.046;5.184;2023-06-14T08:43:38;6.17;;;5.50;;
15202;SDS011;7702;51.046;5.184;2023-06-14T08:46:05;8.37;;;5.70;;
15202;SDS011;7702;51.046;5.184;2023-06-14T08:48:35;6.97;;;5.73;;
15202;SDS011;7702;51.046;5.184;2023-06-14T08:51:01;5.73;;;5.20;;
15202;SDS011;7702;51.046;5.184;2023-06-14T08:53:30;6.30;;;4.83;;
15202;SDS011;7702;51.046;5.184;2023-06-14T08:55:57;11.60;;;5.70;;
15202;SDS011;7702;51.046;5.184;2023-06-14T08:58:27;7.20;;;5.73;;
15202;SDS011;7702;51.046;5.184;2023-06-14T09:00:56;6.73;;;5.37;;
15202;SDS011;7702;51.046;5.184;2023-06-14T09:03:24;5.97;;;5.23;;
15202;SDS011;7702;51.046;5.184;2023-06-14T09:05:54;8.60;;;5.57;;
15202;SDS011;7702;51.046;5.184;2023-06-14T09:08:26;6.93;;;4.53;;
15202;SDS011;7702;51.046;5.184;2023-06-14T09:10:55;6.30;;;4.80;;
15202;SDS011;7702;51.046;5.184;2023-06-14T09:13:22;7.03;;;5.13;;
15202;SDS011;7702;51.046;5.184;2023-06-14T09:15:48;5.10;;;4.60;;
15202;SDS011;7702;51.046;5.184;2023-06-14T09:18:14;5.10;;;4.33;;
15202;SDS011;7702;51.046;5.184;2023-06-14T09:20:40;7.63;;;4.40;;
15202;SDS011;7702;51.046;5.184;2023-06-14T09:23:06;5.20;;;4.70;;
15202;SDS011;7702;51.046;5.184;2023-06-14T09:25:34;5.20;;;4.60;;
15202;SDS011;7702;51.046;5.184;2023-06-14T09:28:07;6.13;;;4.30;;
15202;SDS011;7702;51.046;5.184;2023-06-14T09:30:34;11.43;;;4.60;;
15202;SDS011;7702;51.046;5.184;2023-06-14T09:33:02;5.13;;;4.27;;
15202;SDS011;7702;51.046;5.184;2023-06-14T09:35:27;4.33;;;3.87;;
15202;SDS011;7702;51.046;5.184;2023-06-14T09:37:56;6.97;;;4.17;;
15202;SDS011;7702;51.046;5.184;2023-06-14T09:40:21;4.40;;;4.00;;
15202;SDS011;7702;51.046;5.184;2023-06-14T09:42:48;4.97;;;4.47;;
15202;SDS011;7702;51.046;5.184;2023-06-14T09:45:14;5.30;;;4.10;;
15202;SDS011;7702;51.046;5.184;2023-06-14T09:47:46;5.20;;;4.07;;
15202;SDS011;7702;51.046;5.184;2023-06-14T09:50:14;3.97;;;3.67;;
15202;SDS011;7702;51.046;5.184;2023-06-14T09:52:40;6.33;;;4.23;;
15202;SDS011;7702;51.046;5.184;2023-06-14T09:55:13;6.33;;;4.27;;
15202;SDS011;7702;51.046;5.184;2023-06-14T09:57:40;6.27;;;4.20;;
15202;SDS011;7702;51.046;5.184;2023-06-14T10:00:08;5.47;;;3.80;;
15202;SDS011;7702;51.046;5.184;2023-06-14T10:02:36;4.37;;;4.00;;
15202;SDS011;7702;51.046;5.184;2023-06-14T10:07:32;5.90;;;3.90;;
15202;SDS011;7702;51.046;5.184;2023-06-14T10:10:04;4.93;;;4.47;;
15202;SDS011;7702;51.046;5.184;2023-06-14T10:12:31;5.17;;;3.73;;
15202;SDS011;7702;51.046;5.184;2023-06-14T10:14:57;4.03;;;3.60;;
15202;SDS011;7702;51.046;5.184;2023-06-14T10:20:16;4.80;;;2.97;;
15202;SDS011;7702;51.046;5.184;2023-06-14T10:22:47;9.07;;;2.87;;
15202;SDS011;7702;51.046;5.184;2023-06-14T10:25:25;3.77;;;2.97;;
15202;SDS011;7702;51.046;5.184;2023-06-14T10:33:38;4.90;;;2.90;;
15202;SDS011;7702;51.046;5.184;2023-06-14T10:39:07;3.30;;;2.97;;
15202;SDS011;7702;51.046;5.184;2023-06-14T10:41:36;3.27;;;3.00;;
15202;SDS011;7702;51.046;5.184;2023-06-14T10:46:38;5.30;;;3.10;;
15202;SDS011;7702;51.046;5.184;2023-06-14T10:49:16;3.20;;;2.80;;
15202;SDS011;7702;51.046;5.184;2023-06-14T10:51:44;4.00;;;2.90;;
15202;SDS011;7702;51.046;5.184;2023-06-14T10:54:16;3.60;;;3.30;;
15202;SDS011;7702;51.046;5.184;2023-06-14T10:56:52;3.40;;;2.97;;
15202;SDS011;7702;51.046;5.184;2023-06-14T10:59:18;3.67;;;2.93;;
15202;SDS011;7702;51.046;5.184;2023-06-14T11:04:54;2.30;;;2.20;;
15202;SDS011;7702;51.046;5.184;2023-06-14T11:10:05;2.77;;;2.37;;
15202;SDS011;7702;51.046;5.184;2023-06-14T11:12:47;5.53;;;2.77;;
15202;SDS011;7702;51.046;5.184;2023-06-14T11:15:14;2.40;;;2.27;;
15202;SDS011;7702;51.046;5.184;2023-06-14T11:17:49;2.10;;;1.90;;
15202;SDS011;7702;51.046;5.184;2023-06-14T11:20:16;4.00;;;2.10;;
15202;SDS011;7702;51.046;5.184;2023-06-14T11:22:42;3.03;;;2.00;;
15202;SDS011;7702;51.046;5.184;2023-06-14T11:25:09;2.67;;;2.20;;
15202;SDS011;7702;51.046;5.184;2023-06-14T11:27:35;2.47;;;2.27;;
15202;SDS011;7702;51.046;5.184;2023-06-14T11:30:01;2.07;;;1.83;;
15202;SDS011;7702;51.046;5.184;2023-06-14T11:32:27;3.67;;;1.70;;
15202;SDS011;7702;51.046;5.184;2023-06-14T11:34:53;1.80;;;1.70;;
15202;SDS011;7702;51.046;5.184;2023-06-14T11:37:19;3.07;;;1.90;;
15202;SDS011;7702;51.046;5.184;2023-06-14T11:39:44;3.00;;;1.97;;
15202;SDS011;7702;51.046;5.184;2023-06-14T11:42:17;2.83;;;2.27;;
15202;SDS011;7702;51.046;5.184;2023-06-14T11:44:45;2.00;;;1.90;;
15202;SDS011;7702;51.046;5.184;2023-06-14T11:47:11;1.70;;;1.60;;
15202;SDS011;7702;51.046;5.184;2023-06-14T11:49:38;2.10;;;1.77;;
15202;SDS011;7702;51.046;5.184;2023-06-14T11:52:04;2.03;;;1.83;;
15202;SDS011;7702;51.046;5.184;2023-06-14T11:54:31;2.80;;;2.10;;
15202;SDS011;7702;51.046;5.184;2023-06-14T11:56:57;1.93;;;1.83;;
15202;SDS011;7702;51.046;5.184;2023-06-14T11:59:24;3.43;;;1.80;;
15202;SDS011;7702;51.046;5.184;2023-06-14T12:01:50;4.03;;;2.37;;
15202;SDS011;7702;51.046;5.184;2023-06-14T12:04:24;3.13;;;1.80;;
15202;SDS011;7702;51.046;5.184;2023-06-14T12:06:51;2.20;;;2.03;;
15202;SDS011;7702;51.046;5.184;2023-06-14T12:09:19;1.80;;;1.63;;
15202;SDS011;7702;51.046;5.184;2023-06-14T12:11:44;1.90;;;1.80;;
15202;SDS011;7702;51.046;5.184;2023-06-14T12:14:10;1.48;;;1.40;;
15202;SDS011;7702;51.046;5.184;2023-06-14T12:16:39;2.77;;;2.20;;
15202;SDS011;7702;51.046;5.184;2023-06-14T12:21:38;2.73;;;1.70;;
15202;SDS011;7702;51.046;5.184;2023-06-14T12:24:07;2.27;;;2.03;;
15202;SDS011;7702;51.046;5.184;2023-06-14T12:26:33;2.07;;;1.87;;
15202;SDS011;7702;51.046;5.184;2023-06-14T12:29:04;2.53;;;1.77;;
15202;SDS011;7702;51.046;5.184;2023-06-14T12:31:31;2.58;;;2.10;;
15202;SDS011;7702;51.046;5.184;2023-06-14T12:33:57;3.33;;;2.33;;
15202;SDS011;7702;51.046;5.184;2023-06-14T12:36:23;3.10;;;2.20;;
15202;SDS011;7702;51.046;5.184;2023-06-14T12:38:49;1.90;;;1.80;;
15202;SDS011;7702;51.046;5.184;2023-06-14T12:41:18;2.30;;;2.07;;
15202;SDS011;7702;51.046;5.184;2023-06-14T12:43:46;2.70;;;2.23;;
15202;SDS011;7702;51.046;5.184;2023-06-14T12:46:12;2.67;;;2.13;;
15202;SDS011;7702;51.046;5.184;2023-06-14T12:48:38;2.30;;;2.10;;
15202;SDS011;7702;51.046;5.184;2023-06-14T12:51:04;5.90;;;2.53;;
15202;SDS011;7702;51.046;5.184;2023-06-14T12:53:30;2.60;;;1.83;;
15202;SDS011;7702;51.046;5.184;2023-06-14T12:55:55;3.10;;;2.33;;
15202;SDS011;7702;51.046;5.184;2023-06-14T12:58:21;2.23;;;1.93;;
15202;SDS011;7702;51.046;5.184;2023-06-14T13:00:48;3.15;;;2.30;;
15202;SDS011;7702;51.046;5.184;2023-06-14T13:03:15;8.43;;;2.58;;
15202;SDS011;7702;51.046;5.184;2023-06-14T13:05:40;2.85;;;2.00;;
15202;SDS011;7702;51.046;5.184;2023-06-14T13:08:07;3.10;;;2.20;;
15202;SDS011;7702;51.046;5.184;2023-06-14T13:10:34;4.75;;;2.20;;
15202;SDS011;7702;51.046;5.184;2023-06-14T13:13:00;2.70;;;2.50;;
15202;SDS011;7702;51.046;5.184;2023-06-14T13:15:26;2.40;;;2.20;;
15202;SDS011;7702;51.046;5.184;2023-06-14T13:17:52;3.20;;;2.38;;
15202;SDS011;7702;51.046;5.184;2023-06-14T13:20:18;2.60;;;2.10;;
15202;SDS011;7702;51.046;5.184;2023-06-14T13:22:44;3.00;;;2.03;;
15202;SDS011;7702;51.046;5.184;2023-06-14T13:25:09;3.57;;;2.27;;
15202;SDS011;7702;51.046;5.184;2023-06-14T13:27:35;2.90;;;1.90;;
15202;SDS011;7702;51.046;5.184;2023-06-14T13:30:01;3.37;;;2.67;;
15202;SDS011;7702;51.046;5.184;2023-06-14T13:32:28;12.35;;;2.92;;
15202;SDS011;7702;51.046;5.184;2023-06-14T13:34:53;2.80;;;2.60;;
15202;SDS011;7702;51.046;5.184;2023-06-14T13:37:19;2.72;;;2.05;;
15202;SDS011;7702;51.046;5.184;2023-06-14T13:39:45;2.05;;;1.90;;
15202;SDS011;7702;51.046;5.184;2023-06-14T13:42:11;3.60;;;2.20;;
15202;SDS011;7702;51.046;5.184;2023-06-14T13:44:37;4.63;;;1.90;;
15202;SDS011;7702;51.046;5.184;2023-06-14T13:47:02;5.95;;;2.65;;
15202;SDS011;7702;51.046;5.184;2023-06-14T13:49:28;2.10;;;2.00;;
15202;SDS011;7702;51.046;5.184;2023-06-14T13:51:54;2.57;;;2.10;;
15202;SDS011;7702;51.046;5.184;2023-06-14T13:54:20;2.77;;;2.10;;
15202;SDS011;7702;51.046;5.184;2023-06-14T13:56:46;2.27;;;2.13;;
15202;SDS011;7702;51.046;5.184;2023-06-14T13:59:12;2.20;;;2.00;;
15202;SDS011;7702;51.046;5.184;2023-06-14T14:01:38;2.43;;;2.10;;
15202;SDS011;7702;51.046;5.184;2023-06-14T14:04:04;3.03;;;1.93;;
15202;SDS011;7702;51.046;5.184;2023-06-14T14:06:30;2.93;;;2.20;;
15202;SDS011;7702;51.046;5.184;2023-06-14T14:08:56;2.47;;;2.27;;
15202;SDS011;7702;51.046;5.184;2023-06-14T14:11:22;2.83;;;2.30;;
15202;SDS011;7702;51.046;5.184;2023-06-14T14:13:47;2.57;;;1.90;;
15202;SDS011;7702;51.046;5.184;2023-06-14T14:16:14;3.07;;;1.80;;
15202;SDS011;7702;51.046;5.184;2023-06-14T14:18:41;2.33;;;2.03;;
15202;SDS011;7702;51.046;5.184;2023-06-14T14:21:06;2.80;;;2.00;;
15202;SDS011;7702;51.046;5.184;2023-06-14T14:23:32;3.87;;;2.13;;
15202;SDS011;7702;51.046;5.184;2023-06-14T14:25:58;4.68;;;2.00;;
15202;SDS011;7702;51.046;5.184;2023-06-14T14:28:25;4.97;;;2.30;;
15202;SDS011;7702;51.046;5.184;2023-06-14T14:30:51;5.23;;;1.97;;
15202;SDS011;7702;51.046;5.184;2023-06-14T14:33:18;1.52;;;1.42;;
15202;SDS011;7702;51.046;5.184;2023-06-14T14:35:44;2.60;;;1.63;;
15202;SDS011;7702;51.046;5.184;2023-06-14T14:38:15;2.08;;;1.88;;
15202;SDS011;7702;51.046;5.184;2023-06-14T14:40:42;1.70;;;1.60;;
15202;SDS011;7702;51.046;5.184;2023-06-14T14:43:09;3.42;;;1.85;;
15202;SDS011;7702;51.046;5.184;2023-06-14T14:45:34;3.95;;;1.60;;
15202;SDS011;7702;51.046;5.184;2023-06-14T14:48:01;4.05;;;2.08;;
15202;SDS011;7702;51.046;5.184;2023-06-14T14:50:28;2.60;;;1.60;;
15202;SDS011;7702;51.046;5.184;2023-06-14T14:52:54;3.42;;;1.50;;
15202;SDS011;7702;51.046;5.184;2023-06-14T14:55:20;4.18;;;2.17;;
15202;SDS011;7702;51.046;5.184;2023-06-14T14:57:46;1.52;;;1.42;;
15202;SDS011;7702;51.046;5.184;2023-06-14T15:00:12;2.17;;;1.85;;
15202;SDS011;7702;51.046;5.184;2023-06-14T15:02:39;2.28;;;1.50;;
15202;SDS011;7702;51.046;5.184;2023-06-14T15:05:05;3.83;;;1.90;;
15202;SDS011;7702;51.046;5.184;2023-06-14T15:07:31;3.83;;;1.73;;
15202;SDS011;7702;51.046;5.184;2023-06-14T15:09:58;3.40;;;2.00;;
15202;SDS011;7702;51.046;5.184;2023-06-14T15:12:24;3.47;;;1.90;;
15202;SDS011;7702;51.046;5.184;2023-06-14T15:14:50;3.57;;;1.47;;
15202;SDS011;7702;51.046;5.184;2023-06-14T15:17:20;2.60;;;1.60;;
15202;SDS011;7702;51.046;5.184;2023-06-14T15:19:46;5.67;;;1.93;;
15202;SDS011;7702;51.046;5.184;2023-06-14T15:22:13;5.17;;;2.90;;
15202;SDS011;7702;51.046;5.184;2023-06-14T15:24:42;2.67;;;1.70;;
15202;SDS011;7702;51.046;5.184;2023-06-14T15:27:08;1.58;;;1.40;;
15202;SDS011;7702;51.046;5.184;2023-06-14T15:29:36;3.70;;;1.88;;